sensor_id;sensor_type;location;lat;lon;timestamp;P1;durP1;ratioP1;P2;durP2;ratioP2
9783;SDS011;4931;44.874;-1.092;2023-04-03T00:02:05;9.13;;;2.55;;
9783;SDS011;4931;44.874;-1.092;2023-04-03T00:04:30;15.15;;;2.45;;
9783;SDS011;4931;44.874;-1.092;2023-04-03T00:06:56;17.35;;;3.03;;
9783;SDS011;4931;44.874;-1.092;2023-04-03T00:09:22;11.15;;;2.60;;
9783;SDS011;4931;44.874;-1.092;2023-04-03T00:11:47;10.02;;;2.47;;
9783;SDS011;4931;44.874;-1.092;2023-04-03T00:14:13;12.35;;;2.45;;
9783;SDS011;4931;44.874;-1.092;2023-04-03T00:16:38;11.68;;;2.60;;
9783;SDS011;4931;44.874;-1.092;2023-04-03T00:19:03;14.55;;;2.50;;
9783;SDS011;4931;44.874;-1.092;2023-04-03T00:21:29;12.20;;;2.60;;
9783;SDS011;4931;44.874;-1.092;2023-04-03T00:23:55;12.00;;;2.45;;
9783;SDS011;4931;44.874;-1.092;2023-04-03T00:26:21;13.60;;;2.70;;
9783;SDS011;4931;44.874;-1.092;2023-04-03T00:28:46;10.25;;;2.22;;
9783;SDS011;4931;44.874;-1.092;2023-04-03T00:31:13;7.93;;;2.58;;
9783;SDS011;4931;44.874;-1.092;2023-04-03T00:33:40;7.13;;;2.28;;
9783;SDS011;4931;44.874;-1.092;2023-04-03T00:36:06;9.73;;;2.08;;
9783;SDS011;4931;44.874;-1.092;2023-04-03T00:38:34;7.72;;;2.35;;
9783;SDS011;4931;44.874;-1.092;2023-04-03T00:41:00;8.32;;;2.67;;
9783;SDS011;4931;44.874;-1.092;2023-04-03T00:43:25;6.00;;;2.22;;
9783;SDS011;4931;44.874;-1.092;2023-04-03T00:45:53;8.80;;;1.92;;
9783;SDS011;4931;44.874;-1.092;2023-04-03T00:48:21;8.35;;;2.13;;
9783;SDS011;4931;44.874;-1.092;2023-04-03T00:50:48;9.00;;;2.10;;
9783;SDS011;4931;44.874;-1.092;2023-04-03T00:53:19;6.57;;;2.05;;
9783;SDS011;4931;44.874;-1.092;2023-04-03T00:55:49;9.48;;;1.98;;
9783;SDS011;4931;44.874;-1.092;2023-04-03T00:58:17;6.40;;;2.05;;
9783;SDS011;4931;44.874;-1.092;2023-04-03T01:00:48;9.20;;;2.25;;
9783;SDS011;4931;44.874;-1.092;2023-04-03T01:03:22;4.55;;;1.92;;
9783;SDS011;4931;44.874;-1.092;2023-04-03T01:05:48;5.68;;;1.92;;
9783;SDS011;4931;44.874;-1.092;2023-04-03T01:08:14;5.55;;;2.42;;
9783;SDS011;4931;44.874;-1.092;2023-04-03T01:10:40;8.85;;;2.30;;
9783;SDS011;4931;44.874;-1.092;2023-04-03T01:13:27;6.53;;;2.20;;
9783;SDS011;4931;44.874;-1.092;2023-04-03T01:15:53;6.15;;;2.20;;
9783;SDS011;4931;44.874;-1.092;2023-04-03T01:18:19;7.05;;;2.97;;
9783;SDS011;4931;44.874;-1.092;2023-04-03T01:25:53;8.43;;;2.45;;
9783;SDS011;4931;44.874;-1.092;2023-04-03T01:28:30;7.70;;;2.15;;
9783;SDS011;4931;44.874;-1.092;2023-04-03T01:33:25;5.30;;;2.13;;
9783;SDS011;4931;44.874;-1.092;2023-04-03T01:35:51;5.97;;;2.28;;
9783;SDS011;4931;44.874;-1.092;2023-04-03T01:38:17;6.40;;;2.35;;
9783;SDS011;4931;44.874;-1.092;2023-04-03T01:40:42;5.00;;;2.00;;
9783;SDS011;4931;44.874;-1.092;2023-04-03T01:43:08;3.83;;;2.15;;
9783;SDS011;4931;44.874;-1.092;2023-04-03T01:45:34;6.55;;;2.22;;
9783;SDS011;4931;44.874;-1.092;2023-04-03T01:47:59;4.60;;;2.08;;
9783;SDS011;4931;44.874;-1.092;2023-04-03T01:50:25;5.70;;;2.15;;
9783;SDS011;4931;44.874;-1.092;2023-04-03T01:52:51;8.10;;;3.03;;
9783;SDS011;4931;44.874;-1.092;2023-04-03T01:55:16;5.68;;;2.90;;
9783;SDS011;4931;44.874;-1.092;2023-04-03T01:57:42;3.75;;;2.47;;
9783;SDS011;4931;44.874;-1.092;2023-04-03T02:00:07;6.00;;;2.30;;
9783;SDS011;4931;44.874;-1.092;2023-04-03T02:02:34;6.15;;;2.45;;
9783;SDS011;4931;44.874;-1.092;2023-04-03T02:05:00;5.25;;;2.35;;
9783;SDS011;4931;44.874;-1.092;2023-04-03T02:07:25;4.53;;;2.50;;
9783;SDS011;4931;44.874;-1.092;2023-04-03T02:09:51;8.77;;;2.88;;
9783;SDS011;4931;44.874;-1.092;2023-04-03T02:12:16;7.70;;;2.63;;
9783;SDS011;4931;44.874;-1.092;2023-04-03T02:14:42;6.00;;;2.40;;
9783;SDS011;4931;44.874;-1.092;2023-04-03T02:17:07;4.40;;;2.40;;
9783;SDS011;4931;44.874;-1.092;2023-04-03T02:19:36;5.22;;;2.55;;
9783;SDS011;4931;44.874;-1.092;2023-04-03T02:22:02;5.10;;;2.80;;
9783;SDS011;4931;44.874;-1.092;2023-04-03T02:24:29;5.97;;;2.60;;
9783;SDS011;4931;44.874;-1.092;2023-04-03T02:26:55;4.53;;;2.40;;
9783;SDS011;4931;44.874;-1.092;2023-04-03T02:29:20;5.03;;;2.50;;
9783;SDS011;4931;44.874;-1.092;2023-04-03T02:31:46;7.68;;;2.97;;
9783;SDS011;4931;44.874;-1.092;2023-04-03T02:34:11;5.90;;;2.30;;
9783;SDS011;4931;44.874;-1.092;2023-04-03T02:36:37;7.53;;;2.85;;
9783;SDS011;4931;44.874;-1.092;2023-04-03T02:39:02;6.63;;;2.80;;
9783;SDS011;4931;44.874;-1.092;2023-04-03T02:41:28;7.47;;;3.08;;
9783;SDS011;4931;44.874;-1.092;2023-04-03T02:44:00;9.13;;;3.80;;
9783;SDS011;4931;44.874;-1.092;2023-04-03T02:46:29;5.82;;;3.30;;
9783;SDS011;4931;44.874;-1.092;2023-04-03T02:48:54;6.22;;;2.90;;
9783;SDS011;4931;44.874;-1.092;2023-04-03T02:51:20;7.95;;;3.70;;
9783;SDS011;4931;44.874;-1.092;2023-04-03T02:53:46;6.28;;;3.10;;
9783;SDS011;4931;44.874;-1.092;2023-04-03T02:56:11;6.10;;;3.20;;
9783;SDS011;4931;44.874;-1.092;2023-04-03T02:58:37;8.13;;;3.10;;
9783;SDS011;4931;44.874;-1.092;2023-04-03T03:01:02;5.85;;;3.38;;
9783;SDS011;4931;44.874;-1.092;2023-04-03T03:03:28;5.78;;;2.90;;
9783;SDS011;4931;44.874;-1.092;2023-04-03T03:06:07;6.57;;;3.30;;
9783;SDS011;4931;44.874;-1.092;2023-04-03T03:08:35;6.47;;;3.10;;
9783;SDS011;4931;44.874;-1.092;2023-04-03T03:11:00;8.18;;;3.28;;
9783;SDS011;4931;44.874;-1.092;2023-04-03T03:13:26;6.18;;;3.30;;
9783;SDS011;4931;44.874;-1.092;2023-04-03T03:15:52;7.72;;;3.65;;
9783;SDS011;4931;44.874;-1.092;2023-04-03T03:18:18;6.40;;;3.15;;
9783;SDS011;4931;44.874;-1.092;2023-04-03T03:20:43;7.85;;;3.40;;
9783;SDS011;4931;44.874;-1.092;2023-04-03T03:23:09;7.22;;;3.20;;
9783;SDS011;4931;44.874;-1.092;2023-04-03T03:25:38;7.10;;;3.30;;
9783;SDS011;4931;44.874;-1.092;2023-04-03T03:28:05;10.00;;;3.40;;
9783;SDS011;4931;44.874;-1.092;2023-04-03T03:30:30;5.90;;;3.15;;
9783;SDS011;4931;44.874;-1.092;2023-04-03T03:32:56;6.45;;;3.25;;
9783;SDS011;4931;44.874;-1.092;2023-04-03T03:35:22;7.72;;;3.33;;
9783;SDS011;4931;44.874;-1.092;2023-04-03T03:37:48;7.90;;;3.35;;
9783;SDS011;4931;44.874;-1.092;2023-04-03T03:40:13;4.38;;;2.78;;
9783;SDS011;4931;44.874;-1.092;2023-04-03T03:42:39;6.63;;;2.75;;
9783;SDS011;4931;44.874;-1.092;2023-04-03T03:45:05;6.07;;;3.28;;
9783;SDS011;4931;44.874;-1.092;2023-04-03T03:47:31;6.28;;;3.42;;
9783;SDS011;4931;44.874;-1.092;2023-04-03T03:49:57;8.43;;;3.13;;
9783;SDS011;4931;44.874;-1.092;2023-04-03T03:52:22;7.47;;;3.47;;
9783;SDS011;4931;44.874;-1.092;2023-04-03T03:54:48;8.45;;;3.38;;
9783;SDS011;4931;44.874;-1.092;2023-04-03T03:57:13;7.70;;;3.40;;
9783;SDS011;4931;44.874;-1.092;2023-04-03T03:59:40;6.43;;;3.25;;
9783;SDS011;4931;44.874;-1.092;2023-04-03T04:02:05;7.57;;;3.60;;
9783;SDS011;4931;44.874;-1.092;2023-04-03T04:04:31;9.55;;;3.53;;
9783;SDS011;4931;44.874;-1.092;2023-04-03T04:06:56;7.07;;;3.55;;
9783;SDS011;4931;44.874;-1.092;2023-04-03T04:09:22;8.55;;;3.55;;
9783;SDS011;4931;44.874;-1.092;2023-04-03T04:11:47;6.10;;;3.80;;
9783;SDS011;4931;44.874;-1.092;2023-04-03T04:14:13;9.50;;;4.03;;
9783;SDS011;4931;44.874;-1.092;2023-04-03T04:16:38;10.13;;;4.35;;
9783;SDS011;4931;44.874;-1.092;2023-04-03T04:19:04;10.15;;;3.70;;
9783;SDS011;4931;44.874;-1.092;2023-04-03T04:21:30;8.38;;;3.50;;
9783;SDS011;4931;44.874;-1.092;2023-04-03T04:23:55;8.13;;;3.92;;
9783;SDS011;4931;44.874;-1.092;2023-04-03T04:26:21;8.27;;;3.97;;
9783;SDS011;4931;44.874;-1.092;2023-04-03T04:28:46;9.52;;;4.05;;
9783;SDS011;4931;44.874;-1.092;2023-04-03T04:31:12;6.95;;;3.55;;
9783;SDS011;4931;44.874;-1.092;2023-04-03T04:33:37;10.93;;;4.10;;
9783;SDS011;4931;44.874;-1.092;2023-04-03T04:36:03;8.60;;;3.92;;
9783;SDS011;4931;44.874;-1.092;2023-04-03T04:38:28;7.68;;;3.90;;
9783;SDS011;4931;44.874;-1.092;2023-04-03T04:40:54;9.93;;;4.10;;
9783;SDS011;4931;44.874;-1.092;2023-04-03T04:43:20;9.02;;;4.22;;
9783;SDS011;4931;44.874;-1.092;2023-04-03T04:45:45;7.93;;;3.92;;
9783;SDS011;4931;44.874;-1.092;2023-04-03T04:48:11;9.45;;;3.92;;
9783;SDS011;4931;44.874;-1.092;2023-04-03T04:50:36;13.23;;;4.13;;
9783;SDS011;4931;44.874;-1.092;2023-04-03T04:53:02;8.40;;;4.03;;
9783;SDS011;4931;44.874;-1.092;2023-04-03T04:55:29;10.10;;;3.95;;
9783;SDS011;4931;44.874;-1.092;2023-04-03T04:57:54;8.80;;;4.03;;
9783;SDS011;4931;44.874;-1.092;2023-04-03T05:00:20;9.18;;;4.10;;
9783;SDS011;4931;44.874;-1.092;2023-04-03T05:02:46;9.20;;;4.03;;
9783;SDS011;4931;44.874;-1.092;2023-04-03T05:05:11;8.68;;;4.18;;
9783;SDS011;4931;44.874;-1.092;2023-04-03T05:07:37;10.75;;;4.47;;
9783;SDS011;4931;44.874;-1.092;2023-04-03T05:10:03;10.02;;;3.75;;
9783;SDS011;4931;44.874;-1.092;2023-04-03T05:12:29;12.45;;;3.90;;
9783;SDS011;4931;44.874;-1.092;2023-04-03T05:14:54;8.68;;;3.75;;
9783;SDS011;4931;44.874;-1.092;2023-04-03T05:17:20;6.72;;;3.40;;
9783;SDS011;4931;44.874;-1.092;2023-04-03T05:19:45;11.85;;;4.30;;
9783;SDS011;4931;44.874;-1.092;2023-04-03T05:22:11;8.82;;;3.88;;
9783;SDS011;4931;44.874;-1.092;2023-04-03T05:24:36;9.68;;;4.20;;
9783;SDS011;4931;44.874;-1.092;2023-04-03T05:27:02;8.90;;;4.05;;
9783;SDS011;4931;44.874;-1.092;2023-04-03T05:29:28;10.88;;;4.40;;
9783;SDS011;4931;44.874;-1.092;2023-04-03T05:31:53;9.10;;;4.20;;
9783;SDS011;4931;44.874;-1.092;2023-04-03T05:34:19;9.68;;;4.15;;
9783;SDS011;4931;44.874;-1.092;2023-04-03T05:36:44;10.25;;;4.13;;
9783;SDS011;4931;44.874;-1.092;2023-04-03T05:39:10;11.20;;;4.30;;
9783;SDS011;4931;44.874;-1.092;2023-04-03T05:41:35;9.70;;;4.10;;
9783;SDS011;4931;44.874;-1.092;2023-04-03T05:44:01;11.88;;;4.00;;
9783;SDS011;4931;44.874;-1.092;2023-04-03T05:46:26;11.30;;;4.18;;
9783;SDS011;4931;44.874;-1.092;2023-04-03T05:48:52;11.27;;;4.32;;
9783;SDS011;4931;44.874;-1.092;2023-04-03T05:51:19;17.13;;;4.22;;
9783;SDS011;4931;44.874;-1.092;2023-04-03T05:53:47;10.20;;;4.18;;
9783;SDS011;4931;44.874;-1.092;2023-04-03T05:56:13;10.88;;;4.05;;
9783;SDS011;4931;44.874;-1.092;2023-04-03T05:58:39;9.93;;;4.30;;
9783;SDS011;4931;44.874;-1.092;2023-04-03T06:01:05;8.05;;;4.20;;
9783;SDS011;4931;44.874;-1.092;2023-04-03T06:03:31;9.35;;;3.70;;
9783;SDS011;4931;44.874;-1.092;2023-04-03T06:05:56;9.88;;;4.05;;
9783;SDS011;4931;44.874;-1.092;2023-04-03T06:08:22;11.73;;;3.83;;
9783;SDS011;4931;44.874;-1.092;2023-04-03T06:10:49;11.77;;;4.32;;
9783;SDS011;4931;44.874;-1.092;2023-04-03T06:13:15;13.15;;;4.13;;
9783;SDS011;4931;44.874;-1.092;2023-04-03T06:15:41;12.15;;;4.00;;
9783;SDS011;4931;44.874;-1.092;2023-04-03T06:18:07;12.70;;;4.03;;
9783;SDS011;4931;44.874;-1.092;2023-04-03T06:20:33;8.93;;;3.67;;
9783;SDS011;4931;44.874;-1.092;2023-04-03T06:22:58;12.35;;;4.03;;
9783;SDS011;4931;44.874;-1.092;2023-04-03T06:25:24;13.07;;;4.40;;
9783;SDS011;4931;44.874;-1.092;2023-04-03T06:27:50;11.52;;;3.92;;
9783;SDS011;4931;44.874;-1.092;2023-04-03T06:30:15;12.32;;;4.30;;
9783;SDS011;4931;44.874;-1.092;2023-04-03T06:32:41;10.57;;;3.53;;
9783;SDS011;4931;44.874;-1.092;2023-04-03T06:35:08;12.98;;;3.72;;
9783;SDS011;4931;44.874;-1.092;2023-04-03T06:37:34;13.75;;;4.03;;
9783;SDS011;4931;44.874;-1.092;2023-04-03T06:39:59;13.93;;;4.00;;
9783;SDS011;4931;44.874;-1.092;2023-04-03T06:42:25;13.88;;;3.90;;
9783;SDS011;4931;44.874;-1.092;2023-04-03T06:44:51;13.05;;;3.58;;
9783;SDS011;4931;44.874;-1.092;2023-04-03T06:47:17;13.30;;;3.83;;
9783;SDS011;4931;44.874;-1.092;2023-04-03T06:49:43;11.43;;;3.58;;
9783;SDS011;4931;44.874;-1.092;2023-04-03T06:52:09;13.85;;;3.58;;
9783;SDS011;4931;44.874;-1.092;2023-04-03T06:54:34;7.38;;;3.47;;
9783;SDS011;4931;44.874;-1.092;2023-04-03T06:57:01;11.00;;;3.58;;
9783;SDS011;4931;44.874;-1.092;2023-04-03T06:59:27;14.15;;;4.13;;
9783;SDS011;4931;44.874;-1.092;2023-04-03T07:01:52;8.23;;;3.67;;
9783;SDS011;4931;44.874;-1.092;2023-04-03T07:04:18;19.45;;;3.95;;
9783;SDS011;4931;44.874;-1.092;2023-04-03T07:06:45;12.80;;;4.00;;
9783;SDS011;4931;44.874;-1.092;2023-04-03T07:09:12;11.00;;;3.60;;
9783;SDS011;4931;44.874;-1.092;2023-04-03T07:11:38;13.18;;;3.58;;
9783;SDS011;4931;44.874;-1.092;2023-04-03T07:14:04;15.30;;;3.60;;
9783;SDS011;4931;44.874;-1.092;2023-04-03T07:16:31;8.73;;;3.20;;
9783;SDS011;4931;44.874;-1.092;2023-04-03T07:18:57;13.95;;;4.07;;
9783;SDS011;4931;44.874;-1.092;2023-04-03T07:21:22;8.00;;;3.17;;
9783;SDS011;4931;44.874;-1.092;2023-04-03T07:23:48;11.90;;;3.33;;
9783;SDS011;4931;44.874;-1.092;2023-04-03T07:26:14;13.38;;;3.50;;
9783;SDS011;4931;44.874;-1.092;2023-04-03T07:28:39;12.93;;;3.90;;
9783;SDS011;4931;44.874;-1.092;2023-04-03T07:31:07;11.93;;;3.40;;
9783;SDS011;4931;44.874;-1.092;2023-04-03T07:33:36;16.10;;;3.75;;
9783;SDS011;4931;44.874;-1.092;2023-04-03T07:36:03;11.43;;;3.42;;
9783;SDS011;4931;44.874;-1.092;2023-04-03T07:38:29;10.95;;;3.90;;
9783;SDS011;4931;44.874;-1.092;2023-04-03T07:40:59;13.90;;;3.42;;
9783;SDS011;4931;44.874;-1.092;2023-04-03T07:43:24;10.55;;;3.75;;
9783;SDS011;4931;44.874;-1.092;2023-04-03T07:45:50;12.73;;;3.20;;
9783;SDS011;4931;44.874;-1.092;2023-04-03T07:48:17;9.48;;;3.53;;
9783;SDS011;4931;44.874;-1.092;2023-04-03T07:50:45;9.75;;;3.10;;
9783;SDS011;4931;44.874;-1.092;2023-04-03T07:53:11;11.02;;;3.22;;
9783;SDS011;4931;44.874;-1.092;2023-04-03T07:55:36;15.02;;;3.83;;
9783;SDS011;4931;44.874;-1.092;2023-04-03T08:00:34;15.88;;;3.58;;
9783;SDS011;4931;44.874;-1.092;2023-04-03T08:03:00;10.63;;;3.75;;
9783;SDS011;4931;44.874;-1.092;2023-04-03T08:05:26;12.68;;;3.65;;
9783;SDS011;4931;44.874;-1.092;2023-04-03T08:07:51;10.43;;;3.53;;
9783;SDS011;4931;44.874;-1.092;2023-04-03T08:10:17;16.27;;;3.67;;
9783;SDS011;4931;44.874;-1.092;2023-04-03T08:12:45;12.95;;;3.83;;
9783;SDS011;4931;44.874;-1.092;2023-04-03T08:15:11;18.25;;;4.38;;
9783;SDS011;4931;44.874;-1.092;2023-04-03T08:17:37;14.40;;;4.03;;
9783;SDS011;4931;44.874;-1.092;2023-04-03T08:20:04;10.80;;;3.55;;
9783;SDS011;4931;44.874;-1.092;2023-04-03T08:22:32;13.05;;;3.25;;
9783;SDS011;4931;44.874;-1.092;2023-04-03T08:24:58;12.13;;;3.13;;
9783;SDS011;4931;44.874;-1.092;2023-04-03T08:27:24;12.18;;;3.78;;
9783;SDS011;4931;44.874;-1.092;2023-04-03T08:29:49;13.60;;;3.38;;
9783;SDS011;4931;44.874;-1.092;2023-04-03T08:32:15;9.70;;;3.40;;
9783;SDS011;4931;44.874;-1.092;2023-04-03T08:34:40;10.18;;;3.20;;
9783;SDS011;4931;44.874;-1.092;2023-04-03T08:37:06;12.63;;;3.25;;
9783;SDS011;4931;44.874;-1.092;2023-04-03T08:39:32;14.68;;;3.40;;
9783;SDS011;4931;44.874;-1.092;2023-04-03T08:41:57;10.27;;;3.10;;
9783;SDS011;4931;44.874;-1.092;2023-04-03T08:55:04;10.90;;;2.70;;
9783;SDS011;4931;44.874;-1.092;2023-04-03T08:57:58;7.68;;;2.38;;
9783;SDS011;4931;44.874;-1.092;2023-04-03T09:00:27;14.80;;;2.95;;
9783;SDS011;4931;44.874;-1.092;2023-04-03T09:02:57;9.02;;;2.72;;
9783;SDS011;4931;44.874;-1.092;2023-04-03T09:05:30;10.43;;;2.40;;
9783;SDS011;4931;44.874;-1.092;2023-04-03T09:08:07;6.68;;;2.35;;
9783;SDS011;4931;44.874;-1.092;2023-04-03T09:10:44;10.55;;;2.75;;
9783;SDS011;4931;44.874;-1.092;2023-04-03T09:13:22;12.30;;;2.58;;
9783;SDS011;4931;44.874;-1.092;2023-04-03T09:15:55;6.80;;;2.10;;
9783;SDS011;4931;44.874;-1.092;2023-04-03T09:18:35;4.43;;;2.03;;
9783;SDS011;4931;44.874;-1.092;2023-04-03T09:21:40;7.55;;;2.40;;
9783;SDS011;4931;44.874;-1.092;2023-04-03T09:24:04;7.80;;;2.00;;
9783;SDS011;4931;44.874;-1.092;2023-04-03T09:26:36;7.57;;;2.63;;
9783;SDS011;4931;44.874;-1.092;2023-04-03T09:29:08;7.85;;;2.00;;
9783;SDS011;4931;44.874;-1.092;2023-04-03T09:31:40;8.88;;;2.35;;
9783;SDS011;4931;44.874;-1.092;2023-04-03T09:34:19;6.45;;;2.08;;
9783;SDS011;4931;44.874;-1.092;2023-04-03T09:36:51;5.93;;;1.75;;
9783;SDS011;4931;44.874;-1.092;2023-04-03T09:39:20;6.10;;;2.33;;
9783;SDS011;4931;44.874;-1.092;2023-04-03T09:42:00;7.25;;;1.98;;
9783;SDS011;4931;44.874;-1.092;2023-04-03T09:44:30;5.75;;;1.70;;
9783;SDS011;4931;44.874;-1.092;2023-04-03T09:46:55;8.15;;;1.90;;
9783;SDS011;4931;44.874;-1.092;2023-04-03T09:49:21;3.35;;;1.70;;
9783;SDS011;4931;44.874;-1.092;2023-04-03T09:51:46;6.00;;;1.70;;
9783;SDS011;4931;44.874;-1.092;2023-04-03T09:57:09;4.72;;;1.88;;
9783;SDS011;4931;44.874;-1.092;2023-04-03T09:59:38;5.47;;;1.90;;
9783;SDS011;4931;44.874;-1.092;2023-04-03T10:04:40;6.63;;;3.20;;
9783;SDS011;4931;44.874;-1.092;2023-04-03T10:07:26;3.05;;;1.73;;
9783;SDS011;4931;44.874;-1.092;2023-04-03T10:09:59;8.90;;;1.90;;
9783;SDS011;4931;44.874;-1.092;2023-04-03T10:12:28;8.48;;;2.30;;
9783;SDS011;4931;44.874;-1.092;2023-04-03T10:14:56;6.15;;;1.70;;
9783;SDS011;4931;44.874;-1.092;2023-04-03T10:23:02;6.30;;;1.70;;
9783;SDS011;4931;44.874;-1.092;2023-04-03T10:29:16;5.32;;;1.80;;
9783;SDS011;4931;44.874;-1.092;2023-04-03T10:35:18;8.02;;;1.90;;
9783;SDS011;4931;44.874;-1.092;2023-04-03T10:41:02;3.33;;;1.70;;
9783;SDS011;4931;44.874;-1.092;2023-04-03T10:46:39;4.47;;;1.50;;
9783;SDS011;4931;44.874;-1.092;2023-04-03T10:49:28;6.18;;;2.10;;
9783;SDS011;4931;44.874;-1.092;2023-04-03T10:52:12;6.22;;;1.60;;
9783;SDS011;4931;44.874;-1.092;2023-04-03T10:55:01;9.35;;;3.03;;
9783;SDS011;4931;44.874;-1.092;2023-04-03T10:57:30;6.88;;;1.98;;
9783;SDS011;4931;44.874;-1.092;2023-04-03T11:02:50;9.18;;;2.00;;
9783;SDS011;4931;44.874;-1.092;2023-04-03T11:05:21;6.57;;;1.85;;
9783;SDS011;4931;44.874;-1.092;2023-04-03T11:07:57;4.88;;;2.25;;
9783;SDS011;4931;44.874;-1.092;2023-04-03T11:16:14;9.70;;;2.38;;
9783;SDS011;4931;44.874;-1.092;2023-04-03T11:18:49;5.22;;;1.80;;
9783;SDS011;4931;44.874;-1.092;2023-04-03T11:23:49;8.10;;;2.05;;
9783;SDS011;4931;44.874;-1.092;2023-04-03T11:26:17;5.97;;;2.10;;
9783;SDS011;4931;44.874;-1.092;2023-04-03T11:28:52;5.47;;;2.05;;
9783;SDS011;4931;44.874;-1.092;2023-04-03T11:31:27;6.63;;;1.98;;
9783;SDS011;4931;44.874;-1.092;2023-04-03T11:36:57;7.80;;;2.58;;
9783;SDS011;4931;44.874;-1.092;2023-04-03T11:39:26;6.55;;;1.88;;
9783;SDS011;4931;44.874;-1.092;2023-04-03T11:41:55;5.05;;;2.30;;
9783;SDS011;4931;44.874;-1.092;2023-04-03T11:44:50;8.93;;;2.08;;
9783;SDS011;4931;44.874;-1.092;2023-04-03T11:52:56;6.53;;;2.13;;
9783;SDS011;4931;44.874;-1.092;2023-04-03T12:05:52;6.20;;;1.85;;
9783;SDS011;4931;44.874;-1.092;2023-04-03T12:08:28;6.43;;;1.77;;
9783;SDS011;4931;44.874;-1.092;2023-04-03T12:26:43;6.07;;;2.13;;
9783;SDS011;4931;44.874;-1.092;2023-04-03T12:29:14;4.30;;;1.70;;
9783;SDS011;4931;44.874;-1.092;2023-04-03T12:31:48;5.85;;;1.80;;
9783;SDS011;4931;44.874;-1.092;2023-04-03T12:40:15;4.40;;;1.70;;
9783;SDS011;4931;44.874;-1.092;2023-04-03T12:46:02;7.55;;;1.75;;
9783;SDS011;4931;44.874;-1.092;2023-04-03T12:48:31;2.80;;;1.70;;
9783;SDS011;4931;44.874;-1.092;2023-04-03T12:51:01;6.57;;;1.80;;
9783;SDS011;4931;44.874;-1.092;2023-04-03T12:53:28;5.00;;;1.42;;
9783;SDS011;4931;44.874;-1.092;2023-04-03T12:58:48;5.85;;;1.77;;
9783;SDS011;4931;44.874;-1.092;2023-04-03T13:01:18;6.85;;;1.95;;
9783;SDS011;4931;44.874;-1.092;2023-04-03T13:03:48;4.00;;;1.70;;
9783;SDS011;4931;44.874;-1.092;2023-04-03T13:06:18;5.05;;;1.55;;
9783;SDS011;4931;44.874;-1.092;2023-04-03T13:08:58;2.88;;;1.65;;
9783;SDS011;4931;44.874;-1.092;2023-04-03T13:11:30;8.02;;;2.10;;
9783;SDS011;4931;44.874;-1.092;2023-04-03T13:14:24;5.10;;;1.80;;
9783;SDS011;4931;44.874;-1.092;2023-04-03T13:17:06;6.65;;;1.83;;
9783;SDS011;4931;44.874;-1.092;2023-04-03T13:19:37;7.03;;;2.03;;
9783;SDS011;4931;44.874;-1.092;2023-04-03T13:22:17;3.63;;;1.50;;
9783;SDS011;4931;44.874;-1.092;2023-04-03T13:25:08;7.15;;;1.80;;
9783;SDS011;4931;44.874;-1.092;2023-04-03T13:27:38;8.50;;;2.40;;
9783;SDS011;4931;44.874;-1.092;2023-04-03T13:30:17;6.32;;;1.92;;
9783;SDS011;4931;44.874;-1.092;2023-04-03T13:32:46;5.70;;;2.00;;
9783;SDS011;4931;44.874;-1.092;2023-04-03T13:35:25;11.85;;;2.03;;
9783;SDS011;4931;44.874;-1.092;2023-04-03T13:37:55;13.30;;;2.83;;
9783;SDS011;4931;44.874;-1.092;2023-04-03T13:40:23;8.70;;;2.40;;
9783;SDS011;4931;44.874;-1.092;2023-04-03T13:42:58;7.07;;;2.00;;
9783;SDS011;4931;44.874;-1.092;2023-04-03T13:45:32;5.95;;;1.90;;
9783;SDS011;4931;44.874;-1.092;2023-04-03T13:48:16;7.20;;;2.13;;
9783;SDS011;4931;44.874;-1.092;2023-04-03T13:51:03;5.38;;;1.77;;
9783;SDS011;4931;44.874;-1.092;2023-04-03T13:53:33;6.15;;;1.83;;
9783;SDS011;4931;44.874;-1.092;2023-04-03T13:56:08;4.43;;;1.63;;
9783;SDS011;4931;44.874;-1.092;2023-04-03T13:58:51;3.65;;;1.65;;
9783;SDS011;4931;44.874;-1.092;2023-04-03T14:01:32;5.43;;;2.00;;
9783;SDS011;4931;44.874;-1.092;2023-04-03T14:04:09;7.28;;;2.03;;
9783;SDS011;4931;44.874;-1.092;2023-04-03T14:06:42;4.22;;;1.80;;
9783;SDS011;4931;44.874;-1.092;2023-04-03T14:09:07;10.38;;;2.30;;
9783;SDS011;4931;44.874;-1.092;2023-04-03T14:11:33;4.47;;;1.55;;
9783;SDS011;4931;44.874;-1.092;2023-04-03T14:14:00;4.30;;;1.50;;
9783;SDS011;4931;44.874;-1.092;2023-04-03T14:16:32;4.43;;;1.83;;
9783;SDS011;4931;44.874;-1.092;2023-04-03T14:19:02;6.10;;;1.80;;
9783;SDS011;4931;44.874;-1.092;2023-04-03T14:21:28;6.78;;;2.00;;
9783;SDS011;4931;44.874;-1.092;2023-04-03T14:23:54;4.75;;;1.83;;
9783;SDS011;4931;44.874;-1.092;2023-04-03T14:26:20;6.15;;;1.90;;
9783;SDS011;4931;44.874;-1.092;2023-04-03T14:28:51;4.57;;;1.90;;
9783;SDS011;4931;44.874;-1.092;2023-04-03T14:31:19;4.13;;;1.80;;
9783;SDS011;4931;44.874;-1.092;2023-04-03T14:33:45;5.72;;;1.90;;
9783;SDS011;4931;44.874;-1.092;2023-04-03T14:38:39;7.07;;;1.58;;
9783;SDS011;4931;44.874;-1.092;2023-04-03T14:41:06;4.93;;;1.70;;
9783;SDS011;4931;44.874;-1.092;2023-04-03T14:43:32;11.15;;;2.10;;
9783;SDS011;4931;44.874;-1.092;2023-04-03T14:45:57;5.00;;;1.77;;
9783;SDS011;4931;44.874;-1.092;2023-04-03T14:48:24;6.88;;;1.98;;
9783;SDS011;4931;44.874;-1.092;2023-04-03T14:50:52;5.85;;;1.80;;
9783;SDS011;4931;44.874;-1.092;2023-04-03T14:53:18;6.25;;;2.03;;
9783;SDS011;4931;44.874;-1.092;2023-04-03T14:55:47;4.90;;;1.90;;
9783;SDS011;4931;44.874;-1.092;2023-04-03T14:58:15;5.90;;;1.73;;
9783;SDS011;4931;44.874;-1.092;2023-04-03T15:00:42;4.50;;;1.83;;
9783;SDS011;4931;44.874;-1.092;2023-04-03T15:03:13;5.85;;;1.80;;
9783;SDS011;4931;44.874;-1.092;2023-04-03T15:05:40;5.10;;;2.00;;
9783;SDS011;4931;44.874;-1.092;2023-04-03T15:08:13;3.92;;;1.67;;
9783;SDS011;4931;44.874;-1.092;2023-04-03T15:10:46;6.40;;;1.60;;
9783;SDS011;4931;44.874;-1.092;2023-04-03T15:13:13;4.65;;;1.83;;
9783;SDS011;4931;44.874;-1.092;2023-04-03T15:15:39;5.22;;;1.98;;
9783;SDS011;4931;44.874;-1.092;2023-04-03T15:18:04;6.10;;;1.90;;
9783;SDS011;4931;44.874;-1.092;2023-04-03T15:20:31;5.65;;;1.70;;
9783;SDS011;4931;44.874;-1.092;2023-04-03T15:22:58;4.78;;;1.60;;
9783;SDS011;4931;44.874;-1.092;2023-04-03T15:25:28;5.25;;;1.63;;
9783;SDS011;4931;44.874;-1.092;2023-04-03T15:27:54;3.72;;;1.50;;
9783;SDS011;4931;44.874;-1.092;2023-04-03T15:30:21;5.88;;;1.80;;
9783;SDS011;4931;44.874;-1.092;2023-04-03T15:32:46;4.97;;;1.75;;
9783;SDS011;4931;44.874;-1.092;2023-04-03T15:35:13;3.78;;;1.67;;
9783;SDS011;4931;44.874;-1.092;2023-04-03T15:37:39;5.90;;;1.67;;
9783;SDS011;4931;44.874;-1.092;2023-04-03T15:40:05;6.15;;;1.88;;
9783;SDS011;4931;44.874;-1.092;2023-04-03T15:42:32;4.63;;;1.73;;
9783;SDS011;4931;44.874;-1.092;2023-04-03T15:44:57;3.08;;;1.52;;
9783;SDS011;4931;44.874;-1.092;2023-04-03T15:47:24;3.58;;;1.40;;
9783;SDS011;4931;44.874;-1.092;2023-04-03T15:49:50;5.88;;;1.90;;
9783;SDS011;4931;44.874;-1.092;2023-04-03T15:52:16;4.20;;;1.80;;
9783;SDS011;4931;44.874;-1.092;2023-04-03T15:54:42;3.53;;;1.63;;
9783;SDS011;4931;44.874;-1.092;2023-04-03T15:57:07;4.15;;;1.73;;
9783;SDS011;4931;44.874;-1.092;2023-04-03T15:59:33;4.22;;;1.60;;
9783;SDS011;4931;44.874;-1.092;2023-04-03T16:01:58;3.13;;;1.40;;
9783;SDS011;4931;44.874;-1.092;2023-04-03T16:04:26;4.53;;;1.60;;
9783;SDS011;4931;44.874;-1.092;2023-04-03T16:06:52;4.72;;;1.83;;
9783;SDS011;4931;44.874;-1.092;2023-04-03T16:09:18;4.53;;;1.90;;
9783;SDS011;4931;44.874;-1.092;2023-04-03T16:11:43;3.53;;;1.90;;
9783;SDS011;4931;44.874;-1.092;2023-04-03T16:14:09;4.97;;;2.00;;
9783;SDS011;4931;44.874;-1.092;2023-04-03T16:16:35;4.05;;;2.20;;
9783;SDS011;4931;44.874;-1.092;2023-04-03T16:19:01;4.13;;;1.90;;
9783;SDS011;4931;44.874;-1.092;2023-04-03T16:21:27;3.17;;;1.63;;
9783;SDS011;4931;44.874;-1.092;2023-04-03T16:23:53;3.92;;;2.10;;
9783;SDS011;4931;44.874;-1.092;2023-04-03T16:26:20;9.63;;;2.17;;
9783;SDS011;4931;44.874;-1.092;2023-04-03T16:28:46;3.50;;;2.20;;
9783;SDS011;4931;44.874;-1.092;2023-04-03T16:31:11;3.72;;;2.35;;
9783;SDS011;4931;44.874;-1.092;2023-04-03T16:33:37;4.22;;;2.70;;
9783;SDS011;4931;44.874;-1.092;2023-04-03T16:36:03;4.10;;;3.08;;
9783;SDS011;4931;44.874;-1.092;2023-04-03T16:38:29;5.18;;;2.88;;
9783;SDS011;4931;44.874;-1.092;2023-04-03T16:40:55;4.30;;;2.95;;
9783;SDS011;4931;44.874;-1.092;2023-04-03T16:43:24;15.10;;;3.58;;
9783;SDS011;4931;44.874;-1.092;2023-04-03T16:45:50;4.60;;;3.15;;
9783;SDS011;4931;44.874;-1.092;2023-04-03T16:48:16;5.13;;;3.10;;
9783;SDS011;4931;44.874;-1.092;2023-04-03T16:50:42;5.35;;;2.80;;